Time;durP1;ratioP1;P1;durP2;ratioP2;P2;SDS_P1;SDS_P2;PMS_P1;PMS_P2;Temp;Humidity;BMP_temperature;BMP_pressure;BME280_temperature;BME280_humidity;BME280_pressure;Samples;Min_cycle;Max_cycle;Signal;HPM_P1;HPM_P2
2023/09/14 00:01:21;;;;;;;4.50;2.00;;;15.80;1.00;;;;;;5050533;28;20230;-79
2023/09/14 00:03:51;;;;;;;3.42;1.80;;;15.40;99.90;;;;;;5040750;28;20213;-79
2023/09/14 00:06:18;;;;;;;3.97;2.00;;;15.40;99.90;;;;;;5046456;28;20214;-79
2023/09/14 00:08:46;;;;;;;4.13;1.98;;;15.40;99.90;;;;;;5068690;28;20205;-79
2023/09/14 00:11:13;;;;;;;7.38;2.00;;;15.10;99.90;;;;;;5057979;28;20699;-79
2023/09/14 00:13:41;;;;;;;4.80;1.83;;;15.10;99.90;;;;;;5061374;28;20204;-79
2023/09/14 00:16:08;;;;;;;4.65;2.75;;;15.30;99.90;;;;;;5063121;28;20221;-79
2023/09/14 00:18:36;;;;;;;4.70;2.00;;;15.40;99.90;;;;;;5046195;28;20202;-79
2023/09/14 00:21:05;;;;;;;3.55;2.10;;;15.50;99.90;;;;;;5042907;28;20221;-79
2023/09/14 00:23:33;;;;;;;4.88;2.10;;;15.40;99.90;;;;;;5049460;28;20193;-79
2023/09/14 00:26:00;;;;;;;3.60;1.75;;;15.50;99.90;;;;;;5049934;28;20654;-79
2023/09/14 00:28:27;;;;;;;5.82;2.10;;;15.50;99.90;;;;;;5044989;28;20194;-79
2023/09/14 00:30:57;;;;;;;4.20;1.80;;;15.60;99.90;;;;;;5055479;28;20236;-79
2023/09/14 00:33:25;;;;;;;4.43;1.80;;;15.50;99.90;;;;;;5040929;28;20209;-79
2023/09/14 00:35:52;;;;;;;6.15;1.90;;;15.50;99.90;;;;;;5069829;28;20221;-79
2023/09/14 00:38:22;;;;;;;4.68;1.63;;;15.60;99.90;;;;;;5059069;28;20563;-79
2023/09/14 00:40:51;;;;;;;2.25;1.63;;;15.50;99.90;;;;;;5037185;28;20222;-79
2023/09/14 00:43:19;;;;;;;3.13;1.83;;;15.50;99.90;;;;;;5058728;28;20202;-79
2023/09/14 00:45:47;;;;;;;3.60;1.90;;;15.50;99.90;;;;;;5045758;28;20228;-79
2023/09/14 00:48:16;;;;;;;4.78;1.92;;;15.40;99.90;;;;;;5044273;28;20198;-79
2023/09/14 00:50:44;;;;;;;2.30;1.45;;;15.30;99.90;;;;;;5042674;28;20222;-79
2023/09/14 00:53:15;;;;;;;4.15;1.55;;;15.30;99.90;;;;;;5052937;28;20202;-79
2023/09/14 00:55:45;;;;;;;2.50;1.70;;;15.30;99.90;;;;;;5042666;28;20710;-79
2023/09/14 00:58:15;;;;;;;5.13;1.70;;;15.30;99.90;;;;;;5046766;28;20209;-79
2023/09/14 01:00:44;;;;;;;3.63;1.95;;;15.10;99.90;;;;;;5067156;28;20544;-79
2023/09/14 01:03:13;;;;;;;4.30;1.88;;;15.10;99.90;;;;;;5061710;28;20197;-79
2023/09/14 01:05:43;;;;;;;2.97;1.80;;;15.20;99.90;;;;;;5050373;28;20190;-79
2023/09/14 01:08:11;;;;;;;4.75;1.85;;;15.20;99.90;;;;;;5044655;28;20202;-80
2023/09/14 01:10:39;;;;;;;2.33;2.03;;;15.20;99.90;;;;;;5038865;28;20229;-80
2023/09/14 01:13:11;;;;;;;2.25;1.50;;;15.30;99.90;;;;;;5051342;28;20198;-80
2023/09/14 01:15:43;;;;;;;2.80;1.52;;;15.20;99.90;;;;;;5054208;28;20229;-80
2023/09/14 01:18:17;;;;;;;4.63;1.70;;;15.10;99.90;;;;;;5047396;28;20650;-80
2023/09/14 01:21:25;;;;;;;2.80;1.90;;;15.10;99.90;;;;;;5043854;28;20214;-79
2023/09/14 01:24:02;;;;;;;5.15;2.00;;;15.10;99.90;;;;;;5037178;28;20209;-79
2023/09/14 01:26:32;;;;;;;5.40;2.20;;;15.10;99.90;;;;;;5052691;28;20194;-79
2023/09/14 01:29:02;;;;;;;3.30;1.40;;;15.10;99.90;;;;;;5047797;28;20206;-79
2023/09/14 01:31:30;;;;;;;3.92;1.88;;;15.00;29.60;;;;;;5048102;28;20222;-80
2023/09/14 01:33:57;;;;;;;4.65;1.95;;;15.10;99.90;;;;;;5049041;28;20207;-80
2023/09/14 01:36:36;;;;;;;2.92;1.80;;;15.00;99.90;;;;;;5034372;28;20218;-80
2023/09/14 01:39:05;;;;;;;2.70;1.40;;;15.00;65.00;;;;;;5050974;28;20671;-80
2023/09/14 01:41:36;;;;;;;4.25;1.90;;;15.10;31.90;;;;;;5035664;28;20214;-80
2023/09/14 01:44:05;;;;;;;4.88;1.60;;;15.00;1.00;;;;;;5053428;28;20206;-79
2023/09/14 01:46:34;;;;;;;3.70;1.58;;;15.00;1.00;;;;;;5042564;28;20663;-79
2023/09/14 01:49:01;;;;;;;3.22;1.90;;;14.90;1.00;;;;;;5051684;28;20206;-79
2023/09/14 01:51:29;;;;;;;4.47;2.00;;;14.90;31.20;;;;;;5035890;28;20589;-79
2023/09/14 01:53:57;;;;;;;4.32;2.08;;;14.70;99.90;;;;;;5046575;28;20201;-79
2023/09/14 01:56:24;;;;;;;3.78;1.92;;;14.90;99.90;;;;;;5048171;28;20226;-79
2023/09/14 01:58:54;;;;;;;4.10;1.92;;;14.90;99.90;;;;;;5035178;28;20274;-79
2023/09/14 02:01:21;;;;;;;2.67;2.10;;;14.80;99.90;;;;;;5051299;28;20222;-79
2023/09/14 02:03:48;;;;;;;3.22;1.85;;;14.80;99.90;;;;;;5045376;28;20202;-79
2023/09/14 02:06:16;;;;;;;4.63;1.98;;;14.80;99.90;;;;;;5059888;28;20185;-79
2023/09/14 02:08:44;;;;;;;4.72;2.20;;;14.80;97.50;;;;;;5047172;28;20194;-79
2023/09/14 02:11:13;;;;;;;2.85;1.92;;;14.70;99.90;;;;;;5072878;28;20220;-79
2023/09/14 02:13:40;;;;;;;2.90;1.80;;;14.60;99.90;;;;;;5056122;28;20205;-79
2023/09/14 02:16:10;;;;;;;3.85;1.70;;;14.70;99.90;;;;;;5051932;28;20213;-79
2023/09/14 02:18:37;;;;;;;4.55;2.42;;;14.70;99.90;;;;;;5052331;28;20201;-79
2023/09/14 02:21:05;;;;;;;2.17;1.90;;;14.80;99.90;;;;;;5051664;28;20225;-79
2023/09/14 02:23:32;;;;;;;5.75;2.17;;;14.90;99.90;;;;;;5044533;28;20203;-79
2023/09/14 02:26:00;;;;;;;3.55;2.08;;;14.80;99.50;;;;;;5051992;28;20200;-79
2023/09/14 02:28:27;;;;;;;2.83;1.95;;;14.80;75.50;;;;;;5051282;28;20548;-79
2023/09/14 02:30:55;;;;;;;3.95;2.13;;;14.80;99.90;;;;;;5053344;28;20230;-79
2023/09/14 02:33:24;;;;;;;3.38;2.17;;;14.80;99.90;;;;;;5062051;28;20217;-79
2023/09/14 02:35:52;;;;;;;4.15;2.10;;;14.80;99.90;;;;;;5039549;28;20221;-79
2023/09/14 02:38:19;;;;;;;4.40;2.33;;;14.70;99.90;;;;;;5046661;28;20205;-79
2023/09/14 02:40:46;;;;;;;7.75;2.55;;;14.80;99.90;;;;;;5038330;28;20233;-79
2023/09/14 02:43:14;;;;;;;4.68;2.28;;;14.80;99.90;;;;;;5049692;28;20195;-79
2023/09/14 02:45:41;;;;;;;4.60;2.08;;;14.80;99.90;;;;;;5044547;28;20281;-79
2023/09/14 02:48:09;;;;;;;4.88;2.30;;;14.80;99.90;;;;;;5052720;28;20209;-79
2023/09/14 02:50:38;;;;;;;3.80;2.05;;;14.80;99.90;;;;;;5051139;28;20221;-79
2023/09/14 02:53:05;;;;;;;3.38;2.10;;;14.80;99.90;;;;;;5044320;28;20202;-79
2023/09/14 02:55:35;;;;;;;4.40;2.50;;;14.80;99.90;;;;;;5052052;28;20207;-79
2023/09/14 02:58:06;;;;;;;5.55;2.50;;;14.60;99.90;;;;;;5055163;28;20204;-79
2023/09/14 03:00:34;;;;;;;3.05;2.22;;;14.30;99.90;;;;;;5051428;28;20214;-79
2023/09/14 03:03:02;;;;;;;6.53;2.20;;;14.30;99.90;;;;;;5049075;28;20197;-79
2023/09/14 03:05:30;;;;;;;6.90;2.95;;;14.50;99.90;;;;;;5048812;28;20207;-79
2023/09/14 03:07:58;;;;;;;3.65;2.58;;;14.30;99.90;;;;;;5047137;28;20205;-79
2023/09/14 03:10:26;;;;;;;4.65;2.42;;;14.40;99.90;;;;;;5057633;28;20690;-79
2023/09/14 03:12:53;;;;;;;5.05;2.40;;;14.40;99.90;;;;;;5050043;28;20565;-79
2023/09/14 03:15:21;;;;;;;5.55;2.65;;;14.60;99.90;;;;;;5047883;28;20196;-79
2023/09/14 03:17:49;;;;;;;4.43;2.80;;;14.60;99.90;;;;;;5049075;28;20222;-79
2023/09/14 03:20:16;;;;;;;5.28;2.30;;;14.60;99.90;;;;;;5057143;28;20235;-79
2023/09/14 03:22:44;;;;;;;5.80;2.47;;;14.60;99.90;;;;;;5063078;28;20208;-79
2023/09/14 03:25:13;;;;;;;3.90;2.10;;;14.60;99.90;;;;;;5057141;28;20209;-79
2023/09/14 03:27:40;;;;;;;6.63;2.53;;;14.50;99.90;;;;;;5040450;28;20190;-79
2023/09/14 03:30:10;;;;;;;5.30;2.10;;;14.50;99.90;;;;;;5036351;28;20234;-79
2023/09/14 03:32:37;;;;;;;3.80;1.85;;;14.70;99.90;;;;;;5049927;28;20209;-79
2023/09/14 03:35:08;;;;;;;7.28;2.25;;;14.80;99.90;;;;;;5051445;28;20202;-79
2023/09/14 03:37:36;;;;;;;4.03;1.95;;;14.80;3.50;;;;;;5045286;28;20229;-79
2023/09/14 03:40:08;;;;;;;5.97;2.38;;;14.70;1.00;;;;;;5045249;28;20225;-79
2023/09/14 03:45:09;;;;;;;4.82;2.50;;;14.50;99.90;;;;;;5035447;28;20206;-78
2023/09/14 03:47:37;;;;;;;7.90;2.83;;;14.40;99.90;;;;;;5041192;28;20555;-78
2023/09/14 03:50:05;;;;;;;7.53;2.60;;;14.50;99.90;;;;;;5020251;28;20210;-78
2023/09/14 03:52:32;;;;;;;7.15;2.38;;;14.40;99.90;;;;;;5042962;28;20197;-78
2023/09/14 03:54:59;;;;;;;5.10;2.70;;;14.40;99.90;;;;;;5055851;28;20222;-78
2023/09/14 03:57:27;;;;;;;7.07;2.47;;;14.60;99.90;;;;;;5041026;28;20230;-78
2023/09/14 03:59:55;;;;;;;6.75;2.50;;;14.70;99.90;;;;;;5036074;28;20694;-78
2023/09/14 04:02:24;;;;;;;5.32;2.08;;;14.70;99.90;;;;;;5033619;28;20663;-80
2023/09/14 04:04:52;;;;;;;5.20;2.75;;;14.80;99.90;;;;;;5035722;28;20229;-80
2023/09/14 04:07:19;;;;;;;4.85;2.40;;;14.70;99.90;;;;;;5052051;28;20189;-80
2023/09/14 04:09:47;;;;;;;4.45;2.00;;;14.70;99.90;;;;;;5035044;28;20213;-80
2023/09/14 04:12:14;;;;;;;5.80;2.58;;;14.70;99.90;;;;;;5035823;28;20571;-80
2023/09/14 04:14:42;;;;;;;5.80;2.10;;;14.80;99.90;;;;;;5049528;28;20214;-80
2023/09/14 04:17:10;;;;;;;4.35;2.22;;;14.90;99.90;;;;;;5033321;28;20226;-80
2023/09/14 04:19:43;;;;;;;7.00;2.40;;;14.90;99.90;;;;;;5031514;28;20202;-80
2023/09/14 04:22:11;;;;;;;5.88;2.30;;;14.90;97.30;;;;;;5025804;28;20199;-80
2023/09/14 04:24:38;;;;;;;7.22;2.38;;;15.00;99.90;;;;;;5032642;28;20218;-80
2023/09/14 04:27:07;;;;;;;4.32;2.65;;;15.10;1.00;;;;;;5032627;28;20680;-80
2023/09/14 04:29:34;;;;;;;7.38;2.65;;;15.20;1.00;;;;;;5036411;28;20652;-80
2023/09/14 04:32:03;;;;;;;6.88;2.85;;;15.00;1.00;;;;;;5036174;28;20202;-80
2023/09/14 04:34:31;;;;;;;6.75;2.85;;;14.90;1.00;;;;;;5035356;28;20214;-78
2023/09/14 04:37:00;;;;;;;9.45;2.80;;;14.90;1.00;;;;;;5032958;28;20215;-78
2023/09/14 04:39:28;;;;;;;9.45;2.60;;;15.00;3.40;;;;;;5044497;28;20187;-78
2023/09/14 04:41:55;;;;;;;5.20;2.40;;;14.80;99.90;;;;;;5030024;28;20199;-78
2023/09/14 04:44:23;;;;;;;6.07;2.30;;;14.80;99.90;;;;;;5035096;28;20222;-78
2023/09/14 04:46:50;;;;;;;6.47;2.72;;;14.90;99.90;;;;;;5030495;28;20210;-78
2023/09/14 04:49:18;;;;;;;4.63;2.58;;;14.80;99.90;;;;;;5044356;28;20191;-78
2023/09/14 04:51:53;;;;;;;3.95;2.60;;;14.50;99.90;;;;;;5047903;28;20199;-78
2023/09/14 04:55:10;;;;;;;5.82;2.50;;;14.60;99.90;;;;;;5028036;28;20236;-78
2023/09/14 04:57:44;;;;;;;5.00;2.30;;;14.70;99.90;;;;;;5034786;28;20222;-78
2023/09/14 05:00:53;;;;;;;5.80;2.53;;;14.80;99.90;;;;;;5022711;28;20199;-78
2023/09/14 05:03:21;;;;;;;6.95;2.83;;;15.10;99.90;;;;;;5024117;28;20225;-78
2023/09/14 05:05:52;;;;;;;7.00;2.53;;;15.10;99.90;;;;;;5035711;28;20206;-78
2023/09/14 05:08:19;;;;;;;5.22;2.85;;;14.90;99.90;;;;;;5035778;28;20287;-77
2023/09/14 05:10:51;;;;;;;6.30;2.60;;;15.10;99.90;;;;;;5035765;28;20687;-77
2023/09/14 05:13:20;;;;;;;8.40;2.80;;;14.80;99.90;;;;;;5030313;28;20217;-77
2023/09/14 05:15:54;;;;;;;6.20;3.10;;;14.70;99.90;;;;;;5032251;28;20216;-77
2023/09/14 05:18:26;;;;;;;5.75;2.55;;;15.10;99.90;;;;;;5031037;28;20222;-77
2023/09/14 05:20:53;;;;;;;9.02;3.55;;;15.30;99.90;;;;;;5035749;28;20213;-77
2023/09/14 05:23:21;;;;;;;4.95;2.83;;;15.40;99.90;;;;;;5032453;28;20214;-77
2023/09/14 05:25:50;;;;;;;7.95;2.70;;;15.20;99.90;;;;;;5022830;28;20213;-78
2023/09/14 05:28:18;;;;;;;8.52;3.30;;;15.20;99.90;;;;;;5054131;28;20187;-77
2023/09/14 05:30:45;;;;;;;7.88;3.13;;;15.10;99.90;;;;;;5036353;28;20202;-78
2023/09/14 05:33:13;;;;;;;4.88;2.83;;;15.30;99.90;;;;;;5028723;28;20218;-78
2023/09/14 05:35:43;;;;;;;5.25;2.47;;;15.10;99.90;;;;;;5040407;28;20193;-77
2023/09/14 05:38:11;;;;;;;5.38;2.20;;;15.10;99.90;;;;;;5039497;28;20241;-77
2023/09/14 05:40:38;;;;;;;5.05;2.72;;;15.00;99.90;;;;;;5038355;28;20186;-77
2023/09/14 05:43:07;;;;;;;4.53;2.58;;;15.10;99.90;;;;;;5069148;28;20225;-78
2023/09/14 05:45:35;;;;;;;5.95;2.70;;;15.20;99.90;;;;;;5035424;28;20197;-77
2023/09/14 05:48:04;;;;;;;7.03;2.67;;;15.40;99.90;;;;;;5044346;28;20654;-77
2023/09/14 05:50:33;;;;;;;4.28;2.60;;;15.50;99.90;;;;;;5034357;28;20198;-77
2023/09/14 05:53:00;;;;;;;5.13;2.50;;;16.50;99.90;;;;;;5039987;28;20218;-77
2023/09/14 05:55:28;;;;;;;6.07;2.95;;;16.90;35.30;;;;;;5032758;28;20198;-77
2023/09/14 05:57:56;;;;;;;5.57;2.97;;;16.30;99.90;;;;;;5035534;28;20570;-77
2023/09/14 06:00:24;;;;;;;7.57;3.38;;;16.20;1.00;;;;;;5020237;28;20199;-77
2023/09/14 06:02:55;;;;;;;5.43;2.60;;;16.10;99.90;;;;;;5026766;28;20298;-77
2023/09/14 06:05:22;;;;;;;9.00;3.38;;;16.00;99.90;;;;;;5031412;28;20202;-77
2023/09/14 06:07:50;;;;;;;6.63;2.60;;;16.00;1.00;;;;;;5038615;28;20208;-78
2023/09/14 06:10:17;;;;;;;5.13;3.10;;;17.00;63.50;;;;;;5035301;28;20198;-77
2023/09/14 06:12:45;;;;;;;6.57;2.97;;;17.30;1.00;;;;;;5036684;28;20201;-77
2023/09/14 06:15:12;;;;;;;6.35;2.47;;;17.40;1.00;;;;;;5033002;28;20216;-78
2023/09/14 06:17:41;;;;;;;4.25;2.88;;;17.40;99.90;;;;;;5033153;28;20215;-77
2023/09/14 06:20:10;;;;;;;8.82;3.10;;;16.70;38.60;;;;;;5034237;28;20195;-76
2023/09/14 06:22:37;;;;;;;6.10;3.25;;;16.40;99.90;;;;;;5054469;28;20206;-78
2023/09/14 06:25:05;;;;;;;45.00;15.73;;;16.60;1.00;;;;;;5035117;28;20202;-77
2023/09/14 06:27:33;;;;;;;7.63;3.72;;;17.20;8.80;;;;;;5035465;28;20190;-79
2023/09/14 06:30:00;;;;;;;13.93;5.72;;;16.80;99.90;;;;;;5047078;28;20210;-78
2023/09/14 06:32:28;;;;;;;11.93;4.82;;;17.00;99.90;;;;;;5036479;28;20206;-80
2023/09/14 06:35:15;;;;;;;8.07;3.45;;;17.50;99.90;;;;;;5048961;28;20703;-78
2023/09/14 06:37:43;;;;;;;7.38;3.50;;;17.70;99.90;;;;;;5031904;28;20214;-78
2023/09/14 06:40:11;;;;;;;8.07;3.45;;;17.40;99.90;;;;;;5043732;28;20202;-78
2023/09/14 06:42:38;;;;;;;5.80;2.85;;;17.00;1.00;;;;;;5045602;28;20201;-78
2023/09/14 06:45:07;;;;;;;7.13;4.63;;;17.30;99.90;;;;;;5045198;28;20214;-78
2023/09/14 06:47:35;;;;;;;8.35;3.97;;;17.70;1.00;;;;;;5028200;28;20201;-78
2023/09/14 06:50:03;;;;;;;6.88;4.07;;;17.50;99.90;;;;;;5035560;28;20209;-78
2023/09/14 06:52:34;;;;;;;8.35;3.78;;;17.10;99.90;;;;;;5035400;28;20198;-78
2023/09/14 06:55:02;;;;;;;5.68;3.83;;;17.00;1.00;;;;;;5034265;28;20218;-79
2023/09/14 06:57:29;;;;;;;5.05;3.15;;;17.00;99.90;;;;;;5055459;28;20190;-78
2023/09/14 06:59:57;;;;;;;6.72;3.75;;;17.00;1.00;;;;;;5033019;28;20206;-78
2023/09/14 07:02:24;;;;;;;8.07;3.67;;;16.90;99.90;;;;;;5053468;28;20187;-78
2023/09/14 07:04:52;;;;;;;5.65;3.22;;;17.10;99.90;;;;;;5036049;28;20228;-78
2023/09/14 07:07:19;;;;;;;5.95;3.55;;;17.60;99.90;;;;;;5031356;28;20204;-78
2023/09/14 07:09:48;;;;;;;6.68;4.03;;;17.60;1.00;;;;;;5038155;28;20207;-78
2023/09/14 07:12:54;;;;;;;5.97;3.00;;;17.80;1.00;;;;;;5049263;28;20202;-78
2023/09/14 07:15:22;;;;;;;9.48;3.42;;;18.10;1.00;;;;;;5050670;28;20206;-78
2023/09/14 07:17:49;;;;;;;8.65;3.85;;;18.40;56.70;;;;;;5052581;28;20771;-78
2023/09/14 07:20:17;;;;;;;10.65;3.63;;;18.60;99.90;;;;;;5030837;28;20203;-78
2023/09/14 07:22:44;;;;;;;4.78;3.33;;;18.50;1.00;;;;;;5048886;28;20198;-78
2023/09/14 07:25:13;;;;;;;5.38;3.72;;;17.60;99.90;;;;;;5046199;28;20202;-78
2023/09/14 07:27:42;;;;;;;5.90;3.55;;;17.20;1.00;;;;;;5039795;28;20193;-79
2023/09/14 07:30:11;;;;;;;9.70;4.30;;;17.20;99.90;;;;;;5034834;28;20194;-79
2023/09/14 07:32:39;;;;;;;7.25;3.92;;;17.20;1.00;;;;;;5033851;28;20209;-79
2023/09/14 07:35:08;;;;;;;9.13;4.00;;;17.20;99.90;;;;;;5038353;28;20197;-79
2023/09/14 07:37:36;;;;;;;10.88;4.38;;;17.40;28.90;;;;;;5066002;28;20198;-79
2023/09/14 07:40:04;;;;;;;7.45;3.70;;;17.10;99.90;;;;;;5057260;28;20198;-79
2023/09/14 07:42:33;;;;;;;9.57;3.80;;;17.10;99.90;;;;;;5052403;28;20576;-79
2023/09/14 07:45:00;;;;;;;8.25;4.13;;;17.20;99.90;;;;;;5037415;28;20218;-79
2023/09/14 07:47:29;;;;;;;7.60;3.88;;;17.00;1.00;;;;;;5033082;28;20198;-79
2023/09/14 07:49:58;;;;;;;8.55;3.90;;;17.30;99.90;;;;;;5049933;28;20221;-79
2023/09/14 07:52:25;;;;;;;9.60;4.00;;;17.80;99.90;;;;;;5053601;28;20213;-79
2023/09/14 07:54:53;;;;;;;19.90;5.95;;;18.00;1.00;;;;;;5056544;28;20222;-77
2023/09/14 07:57:20;;;;;;;30.73;9.45;;;18.10;99.90;;;;;;5063968;28;20189;-80
2023/09/14 07:59:49;;;;;;;10.80;4.18;;;18.30;1.00;;;;;;5051869;28;20221;-79
2023/09/14 08:02:16;;;;;;;10.57;5.13;;;18.20;42.20;;;;;;5035229;28;20205;-80
2023/09/14 08:04:44;;;;;;;11.43;4.00;;;18.40;99.90;;;;;;5037147;28;20224;-79
2023/09/14 08:07:11;;;;;;;7.13;3.72;;;18.80;99.90;;;;;;5034845;28;20206;-81
2023/09/14 08:09:38;;;;;;;8.88;4.60;;;18.30;99.90;;;;;;5033776;28;20194;-80
2023/09/14 08:12:06;;;;;;;6.70;4.03;;;18.30;99.90;;;;;;5033457;28;20225;-79
2023/09/14 08:14:34;;;;;;;8.25;3.90;;;18.40;13.50;;;;;;5053123;28;20221;-79
2023/09/14 08:17:03;;;;;;;10.95;4.53;;;18.50;1.00;;;;;;5063633;28;20205;-80
2023/09/14 08:19:30;;;;;;;4.97;3.55;;;18.10;1.00;;;;;;5034714;28;20205;-79
2023/09/14 08:21:59;;;;;;;10.23;4.38;;;18.00;1.00;;;;;;5031604;28;20202;-79
2023/09/14 08:24:26;;;;;;;10.10;3.88;;;18.10;99.90;;;;;;5033415;28;20219;-79
2023/09/14 08:26:54;;;;;;;9.00;3.97;;;18.30;99.90;;;;;;5033595;28;20213;-79
2023/09/14 08:29:21;;;;;;;8.60;3.83;;;18.20;1.00;;;;;;5040649;28;20197;-80
2023/09/14 08:31:50;;;;;;;9.63;4.30;;;18.50;1.00;;;;;;5036744;28;20209;-79
2023/09/14 08:34:19;;;;;;;5.18;3.55;;;18.20;1.00;;;;;;5054731;28;20214;-79
2023/09/14 08:36:46;;;;;;;7.70;3.72;;;18.30;1.00;;;;;;5055282;28;20632;-79
2023/09/14 08:39:14;;;;;;;5.63;3.53;;;18.30;99.90;;;;;;5049092;28;20695;-79
2023/09/14 08:41:43;;;;;;;9.05;4.65;;;18.90;32.80;;;;;;5033340;28;20198;-79
2023/09/14 08:44:11;;;;;;;8.02;4.15;;;18.70;99.90;;;;;;5049859;28;20229;-79
2023/09/14 08:46:40;;;;;;;8.02;4.60;;;18.90;1.00;;;;;;5043915;28;20561;-79
2023/09/14 08:49:11;;;;;;;7.00;3.63;;;18.70;99.90;;;;;;5044075;28;20206;-79
2023/09/14 08:51:42;;;;;;;4.88;3.70;;;18.90;99.90;;;;;;5035215;28;20205;-79
2023/09/14 08:54:09;;;;;;;7.93;3.72;;;19.10;1.00;;;;;;5058815;28;20222;-80
2023/09/14 08:56:37;;;;;;;6.07;3.58;;;18.70;99.90;;;;;;5038121;28;20202;-80
2023/09/14 08:59:06;;;;;;;6.63;3.78;;;19.10;99.90;;;;;;5043628;28;20221;-79
2023/09/14 09:01:35;;;;;;;8.50;4.22;;;19.40;1.10;;;;;;5031824;28;20194;-79
2023/09/14 09:04:03;;;;;;;8.10;4.25;;;19.30;1.00;;;;;;5030576;28;20218;-79
2023/09/14 09:06:31;;;;;;;7.25;4.05;;;19.10;1.00;;;;;;5034347;28;20191;-79
2023/09/14 09:09:01;;;;;;;4.55;3.38;;;19.50;1.00;;;;;;5042384;28;20197;-79
2023/09/14 09:11:29;;;;;;;5.53;3.42;;;19.60;1.00;;;;;;5043178;28;20206;-79
2023/09/14 09:13:57;;;;;;;5.07;3.70;;;19.70;1.00;;;;;;5063471;28;20222;-79
2023/09/14 09:16:26;;;;;;;8.02;3.22;;;19.40;1.00;;;;;;5045414;28;20198;-79
2023/09/14 09:19:05;;;;;;;6.88;2.88;;;19.50;99.90;;;;;;5034961;28;20214;-78
2023/09/14 09:21:36;;;;;;;5.72;3.25;;;19.60;36.10;;;;;;5055990;28;20208;-78
2023/09/14 09:24:07;;;;;;;4.25;3.00;;;19.10;1.00;;;;;;5050961;28;20225;-78
2023/09/14 09:26:35;;;;;;;5.10;2.75;;;19.30;71.60;;;;;;5053350;28;20201;-78
2023/09/14 09:29:14;;;;;;;5.60;2.53;;;19.40;99.90;;;;;;5035281;28;20199;-78
2023/09/14 09:31:44;;;;;;;3.78;2.30;;;19.60;90.10;;;;;;5061800;28;20559;-78
2023/09/14 09:34:12;;;;;;;7.65;3.13;;;19.60;62.80;;;;;;5034218;28;20227;-79
2023/09/14 09:36:40;;;;;;;6.78;2.47;;;19.80;1.00;;;;;;5030763;28;20202;-79
2023/09/14 09:39:11;;;;;;;4.40;2.10;;;19.60;99.90;;;;;;5035834;28;20210;-78
2023/09/14 09:41:39;;;;;;;7.07;2.20;;;19.50;99.90;;;;;;5049783;28;20201;-78
2023/09/14 09:44:15;;;;;;;4.93;2.45;;;19.80;1.00;;;;;;5036759;23;20224;-78
2023/09/14 09:47:12;;;;;;;4.93;2.35;;;20.20;1.00;;;;;;5002446;28;20215;-78
2023/09/14 09:49:40;;;;;;;6.00;3.40;;;19.90;1.00;;;;;;4988282;28;20215;-79
2023/09/14 09:52:10;;;;;;;3.33;2.40;;;20.30;1.00;;;;;;5007055;28;20206;-79
2023/09/14 09:54:39;;;;;;;4.97;2.80;;;19.70;99.90;;;;;;5020438;28;20242;-79
2023/09/14 09:57:08;;;;;;;3.53;2.30;;;19.80;99.90;;;;;;5022252;28;20210;-79
2023/09/14 09:59:35;;;;;;;4.82;2.15;;;19.90;99.90;;;;;;5030823;28;20598;-78
2023/09/14 10:02:03;;;;;;;4.78;2.00;;;20.00;23.10;;;;;;5020975;28;20205;-78
2023/09/14 10:04:30;;;;;;;3.60;2.00;;;19.60;99.90;;;;;;5013380;28;20230;-78
2023/09/14 10:07:02;;;;;;;3.33;1.95;;;19.40;99.90;;;;;;5016427;28;20199;-78
2023/09/14 10:09:34;;;;;;;3.60;1.85;;;19.60;99.90;;;;;;5032244;28;20199;-78
2023/09/14 10:12:05;;;;;;;4.30;2.60;;;20.10;41.30;;;;;;5018586;28;20199;-78
2023/09/14 10:14:35;;;;;;;3.10;1.98;;;20.40;1.00;;;;;;5021310;28;20675;-78
2023/09/14 10:17:07;;;;;;;3.53;1.98;;;20.10;1.00;;;;;;5017688;28;20210;-78
2023/09/14 10:19:38;;;;;;;5.45;2.35;;;20.00;81.10;;;;;;5031851;28;20217;-78
2023/09/14 10:22:06;;;;;;;5.93;2.13;;;20.30;46.40;;;;;;5023789;28;20203;-78
2023/09/14 10:24:59;;;;;;;4.13;2.30;;;20.50;99.90;;;;;;5010465;28;20235;-78
2023/09/14 10:27:29;;;;;;;3.10;2.15;;;20.00;99.90;;;;;;5030126;28;20194;-78
2023/09/14 10:29:57;;;;;;;3.22;2.05;;;20.10;23.00;;;;;;5012217;28;20196;-78
2023/09/14 10:32:26;;;;;;;3.10;1.70;;;19.90;1.00;;;;;;5015627;28;20672;-77
2023/09/14 10:34:58;;;;;;;4.63;1.98;;;19.70;1.00;;;;;;5011573;28;20219;-78
2023/09/14 10:37:27;;;;;;;4.07;2.47;;;20.10;68.30;;;;;;5014350;28;20691;-78
2023/09/14 10:39:55;;;;;;;5.18;2.30;;;19.70;1.00;;;;;;5013472;28;20234;-78
2023/09/14 10:42:23;;;;;;;3.50;2.00;;;19.60;1.00;;;;;;5014955;28;20664;-77
2023/09/14 10:44:52;;;;;;;5.75;2.28;;;19.10;17.20;;;;;;5044677;28;20231;-78
2023/09/14 10:47:24;;;;;;;3.67;2.20;;;19.10;37.90;;;;;;5036478;28;20715;-78
2023/09/14 10:49:52;;;;;;;5.28;2.38;;;19.00;1.00;;;;;;5042477;28;20551;-78
2023/09/14 10:52:27;;;;;;;5.60;2.25;;;19.50;1.00;;;;;;5040590;28;20202;-78
2023/09/14 10:54:55;;;;;;;5.68;2.78;;;19.80;1.00;;;;;;5032999;28;20226;-78
2023/09/14 10:57:25;;;;;;;7.45;2.50;;;19.90;1.00;;;;;;5048858;28;20198;-78
2023/09/14 10:59:55;;;;;;;5.57;2.25;;;19.90;1.00;;;;;;5053709;28;20218;-78
2023/09/14 11:02:57;;;;;;;4.72;2.40;;;19.70;1.00;;;;;;5026779;28;20199;-78
2023/09/14 11:05:25;;;;;;;4.88;2.30;;;19.70;1.00;;;;;;5034814;28;20221;-78
2023/09/14 11:07:58;;;;;;;4.05;2.30;;;19.30;1.00;;;;;;5047560;28;20206;-78
2023/09/14 11:10:28;;;;;;;4.68;2.30;;;19.50;1.00;;;;;;5058695;28;20201;-79
2023/09/14 11:13:24;;;;;;;3.63;2.50;;;20.00;1.00;;;;;;5033859;28;20198;-78
2023/09/14 11:16:07;;;;;;;8.50;2.47;;;20.10;4.80;;;;;;5051881;28;20211;-79
2023/09/14 11:18:36;;;;;;;3.42;1.98;;;19.70;1.00;;;;;;5053101;28;20280;-79
2023/09/14 11:21:06;;;;;;;4.70;2.28;;;19.60;1.00;;;;;;5044843;28;20227;-78
2023/09/14 11:23:37;;;;;;;4.10;2.13;;;19.90;1.00;;;;;;5031617;28;20680;-78
2023/09/14 11:26:04;;;;;;;5.72;2.20;;;20.10;1.00;;;;;;5029709;28;20198;-79
2023/09/14 11:28:35;;;;;;;4.57;2.25;;;20.10;99.90;;;;;;5039478;28;20202;-79
2023/09/14 11:31:04;;;;;;;4.22;2.22;;;20.10;1.00;;;;;;5032753;28;20213;-79
2023/09/14 11:33:33;;;;;;;3.10;2.20;;;20.20;1.00;;;;;;5035878;28;20675;-79
2023/09/14 11:36:02;;;;;;;3.47;2.63;;;20.10;99.90;;;;;;5036092;28;20214;-79
2023/09/14 11:38:30;;;;;;;4.38;2.08;;;20.10;99.90;;;;;;5052049;28;20198;-79
2023/09/14 11:40:58;;;;;;;3.80;2.03;;;19.90;99.90;;;;;;5037313;28;20715;-79
2023/09/14 11:43:28;;;;;;;4.35;2.10;;;19.60;38.10;;;;;;5042290;28;20213;-79
2023/09/14 11:46:00;;;;;;;4.22;2.20;;;19.90;99.90;;;;;;5039285;28;20209;-79
2023/09/14 11:48:34;;;;;;;3.35;2.15;;;20.20;99.90;;;;;;5054495;28;20194;-79
2023/09/14 11:51:03;;;;;;;6.82;2.42;;;20.40;1.00;;;;;;5056521;28;20678;-78
2023/09/14 11:53:33;;;;;;;4.30;2.42;;;20.70;99.90;;;;;;5043694;28;20218;-79
2023/09/14 11:56:01;;;;;;;4.75;2.00;;;20.80;99.90;;;;;;5038769;28;20693;-79
2023/09/14 11:58:33;;;;;;;6.10;2.38;;;20.70;1.00;;;;;;5050575;28;20207;-79
2023/09/14 12:01:01;;;;;;;4.07;2.15;;;20.30;1.00;;;;;;5052111;28;20229;-79
2023/09/14 12:03:28;;;;;;;3.45;2.05;;;20.70;1.00;;;;;;5035829;28;20680;-79
2023/09/14 12:05:58;;;;;;;4.00;2.10;;;21.00;1.00;;;;;;5037016;28;20698;-79
2023/09/14 12:08:25;;;;;;;3.63;2.00;;;21.30;1.00;;;;;;5039495;28;20198;-79
2023/09/14 12:10:55;;;;;;;3.47;1.85;;;21.00;1.00;;;;;;5053212;28;20205;-79
2023/09/14 12:13:22;;;;;;;4.60;1.83;;;21.00;1.00;;;;;;5033506;28;20210;-79
2023/09/14 12:15:59;;;;;;;4.78;2.38;;;21.30;1.00;;;;;;5036674;28;20198;-79
2023/09/14 12:18:40;;;;;;;8.25;2.30;;;21.90;1.00;;;;;;5042938;28;20194;-79
2023/09/14 12:21:10;;;;;;;5.28;2.22;;;21.60;1.00;;;;;;5052455;28;20218;-79
2023/09/14 12:23:39;;;;;;;4.43;2.50;;;22.00;1.00;;;;;;5063597;28;20229;-79
2023/09/14 12:26:09;;;;;;;3.30;2.10;;;22.50;1.00;;;;;;5053249;28;20198;-79
2023/09/14 12:28:37;;;;;;;3.78;2.53;;;22.70;1.00;;;;;;5026418;28;20198;-79
2023/09/14 12:31:04;;;;;;;4.10;2.30;;;22.20;1.00;;;;;;5026304;28;20211;-79
2023/09/14 12:33:32;;;;;;;4.07;2.08;;;21.90;1.00;;;;;;5043335;28;20218;-79
2023/09/14 12:35:59;;;;;;;5.75;2.05;;;22.30;1.00;;;;;;5027921;28;20202;-79
2023/09/14 12:38:31;;;;;;;3.40;2.53;;;23.10;1.00;;;;;;5025752;28;20672;-79
2023/09/14 12:40:58;;;;;;;3.58;2.10;;;22.80;1.00;;;;;;5047039;28;20222;-79
2023/09/14 12:43:27;;;;;;;3.05;2.10;;;22.80;1.00;;;;;;5024834;28;20206;-79
2023/09/14 12:45:55;;;;;;;3.40;1.90;;;21.80;1.00;;;;;;5028946;28;20672;-79
2023/09/14 12:48:27;;;;;;;4.63;2.35;;;22.10;1.00;;;;;;5028182;28;20213;-79
2023/09/14 12:50:56;;;;;;;3.75;2.38;;;22.10;1.00;;;;;;5028206;28;20202;-79
2023/09/14 12:53:25;;;;;;;4.85;2.20;;;21.90;1.00;;;;;;5031601;28;20198;-79
2023/09/14 12:55:54;;;;;;;4.43;2.22;;;21.90;1.00;;;;;;5026558;28;20202;-79
2023/09/14 12:58:22;;;;;;;5.18;2.63;;;22.80;1.00;;;;;;5027158;28;20202;-79
2023/09/14 13:00:51;;;;;;;4.80;2.40;;;22.90;1.00;;;;;;5027168;28;20218;-79
2023/09/14 13:03:19;;;;;;;3.40;2.40;;;23.00;1.00;;;;;;5045504;28;20202;-79
2023/09/14 13:05:47;;;;;;;4.10;2.58;;;24.00;1.00;;;;;;5040038;28;20200;-79